createdAt,value
2022-10-30T00:01:01.605Z,13.90
2022-10-30T00:03:29.612Z,13.90
2022-10-30T00:05:57.643Z,14.00
2022-10-30T00:08:26.571Z,14.00
2022-10-30T00:10:55.931Z,13.90
2022-10-30T00:13:23.965Z,14.00
2022-10-30T00:15:54.629Z,13.90
2022-10-30T00:18:22.657Z,13.90
2022-10-30T00:20:50.914Z,13.90
2022-10-30T00:23:20.287Z,13.90
2022-10-30T00:25:48.374Z,13.80
2022-10-30T00:28:17.707Z,13.80
2022-10-30T00:30:45.688Z,13.80
2022-10-30T00:33:13.634Z,13.80
2022-10-30T00:35:49.732Z,13.80
2022-10-30T00:38:17.738Z,13.80
2022-10-30T00:40:45.728Z,13.90
2022-10-30T00:46:19.263Z,14.00
2022-10-30T00:48:55.606Z,14.10
2022-10-30T00:51:24.525Z,14.20
2022-10-30T00:53:54.387Z,14.20
2022-10-30T00:56:24.451Z,14.10
2022-10-30T00:58:58.307Z,14.10
2022-10-30T01:01:30.554Z,14.00
2022-10-30T01:04:03.431Z,13.90
2022-10-30T01:06:36.679Z,13.80
2022-10-30T01:09:05.940Z,13.80
2022-10-30T01:11:34.017Z,13.80
2022-10-30T01:14:08.154Z,13.70
2022-10-30T01:17:03.760Z,13.60
2022-10-30T01:19:45.199Z,13.60
2022-10-30T01:22:33.614Z,13.50
2022-10-30T01:25:17.500Z,13.50
2022-10-30T01:28:00.109Z,13.50
2022-10-30T01:30:48.587Z,13.50
2022-10-30T01:33:36.906Z,13.50
2022-10-30T01:36:16.092Z,13.50
2022-10-30T01:38:50.307Z,13.60
2022-10-30T01:41:18.479Z,13.60
2022-10-30T01:43:51.128Z,13.60
2022-10-30T01:46:52.309Z,13.70
2022-10-30T01:49:46.070Z,13.70
2022-10-30T01:52:23.968Z,13.80
2022-10-30T01:55:03.673Z,13.70
2022-10-30T01:57:41.666Z,13.80
2022-10-30T02:00:14.913Z,13.80
2022-10-30T02:02:43.644Z,13.80
2022-10-30T02:05:22.711Z,13.90
2022-10-30T02:07:50.713Z,13.90
2022-10-30T02:10:18.817Z,14.00
2022-10-30T02:12:46.987Z,14.00
2022-10-30T02:15:15.685Z,14.00
2022-10-30T02:17:43.831Z,14.10
2022-10-30T02:20:18.599Z,14.10
2022-10-30T02:22:47.461Z,14.10
2022-10-30T02:25:16.604Z,14.10
2022-10-30T02:27:44.594Z,14.20
2022-10-30T02:30:13.769Z,14.10
2022-10-30T02:32:41.776Z,14.20
2022-10-30T02:35:10.554Z,14.20
2022-10-30T02:37:40.198Z,14.10
2022-10-30T02:40:09.938Z,14.10
2022-10-30T02:42:37.934Z,14.20
2022-10-30T02:45:06.799Z,14.10
2022-10-30T02:47:34.818Z,14.20
2022-10-30T02:50:02.751Z,14.10
2022-10-30T02:52:30.743Z,14.10
2022-10-30T02:55:00.041Z,14.10
2022-10-30T02:57:28.054Z,14.10
2022-10-30T02:59:56.031Z,14.20
2022-10-30T03:02:24.150Z,14.20
2022-10-30T03:04:52.145Z,14.10
2022-10-30T03:07:20.175Z,14.10
2022-10-30T03:09:48.494Z,14.20
2022-10-30T03:12:17.853Z,14.20
2022-10-30T03:14:45.815Z,14.20
2022-10-30T03:17:13.858Z,14.20
2022-10-30T03:19:41.939Z,14.20
2022-10-30T03:22:10.000Z,14.10
2022-10-30T03:24:38.240Z,14.10
2022-10-30T03:27:06.512Z,14.10
2022-10-30T03:29:35.851Z,14.10
2022-10-30T03:32:03.792Z,14.00
2022-10-30T03:34:31.805Z,14.00
2022-10-30T03:36:59.992Z,14.00
2022-10-30T03:39:27.983Z,14.00
2022-10-30T03:41:56.036Z,13.90
2022-10-30T03:44:24.034Z,13.90
2022-10-30T03:46:53.379Z,13.90
2022-10-30T03:49:21.392Z,13.80
2022-10-30T03:51:49.355Z,13.80
2022-10-30T03:54:18.383Z,13.80
2022-10-30T03:56:46.562Z,13.80
2022-10-30T03:59:14.537Z,13.80
2022-10-30T04:01:42.671Z,13.90
2022-10-30T04:04:12.151Z,13.90
2022-10-30T04:06:40.078Z,13.90
2022-10-30T04:09:08.046Z,14.00
2022-10-30T04:11:36.001Z,13.90
2022-10-30T04:14:03.975Z,14.00
2022-10-30T04:16:31.963Z,14.00
2022-10-30T04:18:59.959Z,14.00
2022-10-30T04:21:29.278Z,14.00
2022-10-30T04:23:57.233Z,14.00
2022-10-30T04:26:25.210Z,13.90
2022-10-30T04:28:53.198Z,13.90
2022-10-30T04:31:21.127Z,14.00
2022-10-30T04:33:49.057Z,14.00
2022-10-30T04:36:18.050Z,14.10
2022-10-30T04:38:47.367Z,14.10
2022-10-30T04:41:15.293Z,14.10
2022-10-30T04:43:43.267Z,14.00
2022-10-30T04:46:11.268Z,14.00
2022-10-30T04:48:39.243Z,14.00
2022-10-30T04:51:08.240Z,13.90
2022-10-30T04:53:36.306Z,14.00
2022-10-30T04:56:06.714Z,14.00
2022-10-30T04:58:34.665Z,14.00
2022-10-30T05:01:03.648Z,14.00
2022-10-30T05:03:31.986Z,14.00
2022-10-30T05:06:03.445Z,14.00
2022-10-30T05:08:31.768Z,14.00
2022-10-30T05:11:00.295Z,14.00
2022-10-30T05:13:29.641Z,14.00
2022-10-30T05:15:57.582Z,13.90
2022-10-30T05:18:25.629Z,13.90
2022-10-30T05:20:53.612Z,13.90
2022-10-30T05:23:21.609Z,13.90
2022-10-30T05:25:49.549Z,13.90
2022-10-30T05:28:17.676Z,13.90
2022-10-30T05:30:47.011Z,14.00
2022-10-30T05:33:17.465Z,13.90
2022-10-30T05:35:45.607Z,13.90
2022-10-30T05:38:14.509Z,14.00
2022-10-30T05:40:42.497Z,14.00
2022-10-30T05:43:10.472Z,14.00
2022-10-30T05:45:38.502Z,14.10
2022-10-30T05:48:08.633Z,14.10
2022-10-30T05:50:36.939Z,14.00
2022-10-30T05:53:06.616Z,14.10
2022-10-30T05:55:34.873Z,14.20
2022-10-30T05:58:06.457Z,14.20
2022-10-30T06:00:36.917Z,14.20
2022-10-30T06:03:08.582Z,14.20
2022-10-30T06:05:38.239Z,14.20
2022-10-30T06:08:08.256Z,14.20
2022-10-30T06:10:36.823Z,14.20
2022-10-30T06:13:07.543Z,14.20
2022-10-30T06:15:35.845Z,14.20
2022-10-30T06:18:03.985Z,14.30
2022-10-30T06:20:33.301Z,14.30
2022-10-30T06:23:03.831Z,14.30
2022-10-30T06:25:40.763Z,14.20
2022-10-30T06:28:11.237Z,14.20
2022-10-30T06:30:39.291Z,14.10
2022-10-30T06:33:08.123Z,14.10
2022-10-30T06:35:37.443Z,14.00
2022-10-30T06:38:05.585Z,14.00
2022-10-30T06:40:34.673Z,14.00
2022-10-30T06:43:02.977Z,13.90
2022-10-30T06:45:31.192Z,14.00
2022-10-30T06:48:01.907Z,14.00
2022-10-30T06:50:30.287Z,14.00
2022-10-30T06:52:59.612Z,14.10
2022-10-30T06:55:27.614Z,14.20
2022-10-30T06:57:57.351Z,14.40
2022-10-30T07:00:25.918Z,14.50
2022-10-30T07:03:02.265Z,14.70
2022-10-30T07:05:30.859Z,14.90
2022-10-30T07:08:00.465Z,15.00
2022-10-30T07:10:28.466Z,15.00
2022-10-30T07:12:58.830Z,15.10
2022-10-30T07:15:27.911Z,15.10
2022-10-30T07:17:57.633Z,15.10
2022-10-30T07:20:27.670Z,15.10
2022-10-30T07:22:55.852Z,15.10
2022-10-30T07:25:25.259Z,15.10
2022-10-30T07:27:55.562Z,15.00
2022-10-30T07:33:02.445Z,15.00
2022-10-30T07:35:32.363Z,14.90
2022-10-30T07:38:04.476Z,14.90
2022-10-30T07:40:34.478Z,14.90
2022-10-30T07:43:04.606Z,14.90
2022-10-30T07:45:33.305Z,14.90
2022-10-30T07:48:01.872Z,14.90
2022-10-30T07:50:30.360Z,14.90
2022-10-30T07:52:58.468Z,15.00
2022-10-30T07:55:26.590Z,15.10
2022-10-30T07:57:56.254Z,15.20
2022-10-30T08:00:24.774Z,15.20
2022-10-30T08:02:56.948Z,15.30
2022-10-30T08:05:28.849Z,15.20
2022-10-30T08:07:59.178Z,15.20
2022-10-30T08:10:27.927Z,15.20
2022-10-30T08:12:57.337Z,15.10
2022-10-30T08:15:25.585Z,15.20
2022-10-30T08:17:54.109Z,15.10
2022-10-30T08:20:24.560Z,15.10
2022-10-30T08:22:54.326Z,15.00
2022-10-30T08:25:25.814Z,15.00
2022-10-30T08:27:59.143Z,15.00
2022-10-30T08:30:30.223Z,15.00
2022-10-30T08:33:00.029Z,14.90
2022-10-30T08:35:29.059Z,14.90
2022-10-30T08:37:57.557Z,15.00
2022-10-30T08:40:27.485Z,15.00
2022-10-30T08:42:58.794Z,15.00
2022-10-30T08:45:30.864Z,15.10
2022-10-30T08:48:01.192Z,15.20
2022-10-30T08:50:30.138Z,15.50
2022-10-30T08:53:01.971Z,15.80
2022-10-30T08:55:31.013Z,16.00
2022-10-30T08:58:00.735Z,16.20
2022-10-30T09:00:29.409Z,16.40
2022-10-30T09:02:58.205Z,16.70
2022-10-30T09:05:26.557Z,16.80
2022-10-30T09:07:58.221Z,17.00
2022-10-30T09:10:26.474Z,17.20
2022-10-30T09:12:57.723Z,17.40
2022-10-30T09:15:28.328Z,17.50
2022-10-30T09:18:01.257Z,17.60
2022-10-30T09:20:31.247Z,17.70
2022-10-30T09:22:59.438Z,17.90
2022-10-30T09:25:28.043Z,18.00
2022-10-30T09:27:56.078Z,18.20
2022-10-30T09:30:26.108Z,18.30
2022-10-30T09:32:58.601Z,18.40
2022-10-30T09:35:27.495Z,18.50
2022-10-30T09:37:56.715Z,18.60
2022-10-30T09:40:42.804Z,18.80
2022-10-30T09:43:28.820Z,18.80
2022-10-30T09:46:21.947Z,19.00
2022-10-30T09:49:11.428Z,19.10
2022-10-30T09:52:06.054Z,19.20
2022-10-30T09:54:56.614Z,19.30
2022-10-30T09:57:40.645Z,19.40
2022-10-30T10:00:13.761Z,19.50
2022-10-30T10:02:59.979Z,19.60
2022-10-30T10:05:39.449Z,19.70
2022-10-30T10:08:16.405Z,19.70
2022-10-30T10:10:48.905Z,19.80
2022-10-30T10:13:31.956Z,19.90
2022-10-30T10:16:12.967Z,19.90
2022-10-30T10:18:48.071Z,20.00
2022-10-30T10:21:26.032Z,20.10
2022-10-30T10:23:57.072Z,20.20
2022-10-30T10:26:32.450Z,20.20
2022-10-30T10:29:28.897Z,20.20
2022-10-30T10:32:18.669Z,20.30
2022-10-30T10:35:07.757Z,20.30
2022-10-30T10:37:45.315Z,20.40
2022-10-30T10:40:38.526Z,20.40
2022-10-30T10:43:25.617Z,20.50
2022-10-30T10:46:26.275Z,20.50
2022-10-30T10:49:14.393Z,20.60
2022-10-30T10:51:50.460Z,20.60
2022-10-30T10:54:25.964Z,20.70
2022-10-30T10:56:54.421Z,20.80
2022-10-30T10:59:33.219Z,20.80
2022-10-30T11:02:34.309Z,20.80
2022-10-30T11:05:13.225Z,20.90
2022-10-30T11:07:49.390Z,20.90
2022-10-30T11:10:21.103Z,20.90
2022-10-30T11:12:49.279Z,20.70
2022-10-30T11:15:32.375Z,20.90
2022-10-30T11:18:03.559Z,21.00
2022-10-30T11:20:43.493Z,21.00
2022-10-30T11:23:40.479Z,21.00
2022-10-30T11:26:34.926Z,21.00
2022-10-30T11:29:13.497Z,21.10
2022-10-30T11:31:43.953Z,21.10
2022-10-30T11:34:26.410Z,21.10
2022-10-30T11:36:55.662Z,21.10
2022-10-30T11:39:27.275Z,21.10
2022-10-30T11:42:04.694Z,21.10
2022-10-30T11:44:38.756Z,21.10
2022-10-30T11:47:09.816Z,21.10
2022-10-30T11:49:47.390Z,21.20
2022-10-30T11:52:18.946Z,21.20
2022-10-30T11:54:52.926Z,21.20
2022-10-30T11:57:30.427Z,21.20
2022-10-30T12:00:04.629Z,21.30
2022-10-30T12:02:43.870Z,21.30
2022-10-30T12:05:34.216Z,21.30
2022-10-30T12:08:21.899Z,21.40
2022-10-30T12:11:01.551Z,21.40
2022-10-30T12:13:38.690Z,21.50
2022-10-30T12:16:20.050Z,21.40
2022-10-30T12:19:03.597Z,21.40
2022-10-30T12:21:39.779Z,21.40
2022-10-30T12:24:18.939Z,21.40
2022-10-30T12:26:53.636Z,21.50
2022-10-30T12:29:41.704Z,21.60
2022-10-30T12:32:20.961Z,21.90
2022-10-30T12:35:00.501Z,22.50
2022-10-30T12:37:34.901Z,23.00
2022-10-30T12:40:13.362Z,23.20
2022-10-30T12:42:55.220Z,23.20
2022-10-30T12:45:32.369Z,23.00
2022-10-30T12:48:09.662Z,22.70
2022-10-30T12:50:45.606Z,22.40
2022-10-30T12:53:30.040Z,22.30
2022-10-30T12:56:07.279Z,22.00
2022-10-30T12:58:47.874Z,21.80
2022-10-30T13:01:28.833Z,21.70
2022-10-30T13:04:10.396Z,21.60
2022-10-30T13:06:47.248Z,21.60
2022-10-30T13:09:24.802Z,21.60
2022-10-30T13:11:59.694Z,21.60
2022-10-30T13:14:38.720Z,21.50
2022-10-30T13:17:12.584Z,21.50
2022-10-30T13:19:42.661Z,21.50
2022-10-30T13:22:20.991Z,21.50
2022-10-30T13:25:03.738Z,21.50
2022-10-30T13:27:46.479Z,21.40
2022-10-30T13:30:20.321Z,21.40
2022-10-30T13:33:08.611Z,21.30
2022-10-30T13:35:45.896Z,21.20
2022-10-30T13:38:44.198Z,21.20
2022-10-30T13:41:27.962Z,21.10
2022-10-30T13:44:12.833Z,21.00
2022-10-30T13:47:06.017Z,21.00
2022-10-30T13:50:03.465Z,20.90
2022-10-30T13:52:36.516Z,20.90
2022-10-30T13:55:15.405Z,20.80
2022-10-30T13:57:51.025Z,20.80
2022-10-30T14:00:22.394Z,20.80
2022-10-30T14:03:16.366Z,20.80
2022-10-30T14:05:52.255Z,20.80
2022-10-30T14:08:33.959Z,20.70
2022-10-30T14:11:05.621Z,20.70
2022-10-30T14:13:50.262Z,20.60
2022-10-30T14:16:43.114Z,20.50
2022-10-30T14:19:13.307Z,20.40
2022-10-30T14:21:44.764Z,20.30
2022-10-30T14:24:17.965Z,20.20
2022-10-30T14:26:55.794Z,20.20
2022-10-30T14:29:49.649Z,20.10
2022-10-30T14:32:49.702Z,19.90
2022-10-30T14:35:41.321Z,19.90
2022-10-30T14:38:36.476Z,19.80
2022-10-30T14:41:28.621Z,19.70
2022-10-30T14:44:44.159Z,19.60
2022-10-30T14:47:55.521Z,19.40
2022-10-30T14:51:02.193Z,19.30
2022-10-30T14:53:50.237Z,19.20
2022-10-30T14:56:36.364Z,19.10
2022-10-30T14:59:23.229Z,19.00
2022-10-30T15:02:21.744Z,18.90
2022-10-30T15:05:28.729Z,18.80
2022-10-30T15:08:20.892Z,18.70
2022-10-30T15:11:11.793Z,18.50
2022-10-30T15:13:51.398Z,18.40
2022-10-30T15:16:22.807Z,18.40
2022-10-30T15:19:00.120Z,18.20
2022-10-30T15:21:33.292Z,18.10
2022-10-30T15:24:03.335Z,18.10
2022-10-30T15:26:37.372Z,17.90
2022-10-30T15:29:07.836Z,17.90
2022-10-30T15:31:35.754Z,17.80
2022-10-30T15:34:03.706Z,17.60
2022-10-30T15:36:43.011Z,17.60
2022-10-30T15:39:15.826Z,17.50
2022-10-30T15:41:48.808Z,17.40
2022-10-30T15:44:22.238Z,17.30
2022-10-30T15:46:52.989Z,17.20
2022-10-30T15:49:31.296Z,17.10
2022-10-30T15:52:01.073Z,17.00
2022-10-30T15:54:32.608Z,16.90
2022-10-30T15:57:42.828Z,16.90
2022-10-30T15:59:55.620Z,16.80
2022-10-30T16:02:26.774Z,16.80
2022-10-30T16:04:55.092Z,16.70
2022-10-30T16:07:26.138Z,16.60
2022-10-30T16:09:57.997Z,16.60
2022-10-30T16:12:28.897Z,16.50
2022-10-30T16:14:58.833Z,16.50
2022-10-30T16:17:28.030Z,16.40
2022-10-30T16:20:03.000Z,16.40
2022-10-30T16:22:38.993Z,16.30
2022-10-30T16:25:12.809Z,16.30
2022-10-30T16:27:46.216Z,16.30
2022-10-30T16:30:17.204Z,16.20
2022-10-30T16:32:52.223Z,16.20
2022-10-30T16:35:24.250Z,16.20
2022-10-30T16:37:53.278Z,16.10
2022-10-30T16:40:28.285Z,16.10
2022-10-30T16:42:59.383Z,16.10
2022-10-30T16:45:50.974Z,16.10
2022-10-30T16:48:27.932Z,16.20
2022-10-30T16:51:04.665Z,16.00
2022-10-30T16:53:33.421Z,16.00
2022-10-30T16:56:03.465Z,16.00
2022-10-30T16:58:32.854Z,15.90
2022-10-30T17:01:07.295Z,15.90
2022-10-30T17:03:41.005Z,15.90
2022-10-30T17:06:29.384Z,15.90
2022-10-30T17:09:01.127Z,15.80
2022-10-30T17:11:41.892Z,15.80
2022-10-30T17:14:22.004Z,15.70
2022-10-30T17:16:56.178Z,15.70
2022-10-30T17:19:48.311Z,15.70
2022-10-30T17:22:21.406Z,15.60
2022-10-30T17:24:49.550Z,15.60
2022-10-30T17:27:47.728Z,15.60
2022-10-30T17:30:40.371Z,15.50
2022-10-30T17:33:28.382Z,15.50
2022-10-30T17:35:56.374Z,15.40
2022-10-30T17:38:24.409Z,15.40
2022-10-30T17:40:52.486Z,15.40
2022-10-30T17:43:26.375Z,15.30
2022-10-30T17:45:54.280Z,15.30
2022-10-30T17:48:26.560Z,15.20
2022-10-30T17:50:54.492Z,15.30
2022-10-30T17:53:25.616Z,15.30
2022-10-30T17:56:02.288Z,15.20
2022-10-30T17:58:31.887Z,15.20
2022-10-30T18:01:00.559Z,15.20
2022-10-30T18:03:28.906Z,15.20
2022-10-30T18:05:58.604Z,15.10
2022-10-30T18:08:26.522Z,15.20
2022-10-30T18:10:54.693Z,15.20
2022-10-30T18:13:22.685Z,15.10
2022-10-30T18:15:58.130Z,15.20
2022-10-30T18:18:26.123Z,15.20
2022-10-30T18:20:54.066Z,15.10
2022-10-30T18:23:51.414Z,15.20
2022-10-30T18:26:17.317Z,15.10
2022-10-30T18:28:45.843Z,15.10
2022-10-30T18:31:18.234Z,15.10
2022-10-30T18:33:46.441Z,15.00
2022-10-30T18:36:16.177Z,15.10
2022-10-30T18:38:44.793Z,15.00
2022-10-30T18:41:17.738Z,15.00
2022-10-30T18:43:47.137Z,15.00
2022-10-30T18:46:17.478Z,14.90
2022-10-30T18:48:45.979Z,14.90
2022-10-30T18:51:19.729Z,14.90
2022-10-30T18:53:52.386Z,14.90
2022-10-30T18:56:22.445Z,14.80
2022-10-30T18:58:54.844Z,14.80
2022-10-30T19:01:28.144Z,14.80
2022-10-30T19:03:56.254Z,14.70
2022-10-30T19:06:25.505Z,14.70
2022-10-30T19:08:53.438Z,14.70
2022-10-30T19:11:25.050Z,14.70
2022-10-30T19:13:54.600Z,14.60
2022-10-30T19:16:25.594Z,14.60
2022-10-30T19:18:55.159Z,14.50
2022-10-30T19:21:26.011Z,14.50
2022-10-30T19:23:55.496Z,14.50
2022-10-30T19:26:23.880Z,14.50
2022-10-30T19:28:51.777Z,14.50
2022-10-30T19:31:21.174Z,14.40
2022-10-30T19:33:53.153Z,14.40
2022-10-30T19:36:33.571Z,14.40
2022-10-30T19:39:07.447Z,14.40
2022-10-30T19:41:36.990Z,14.40
2022-10-30T19:44:05.728Z,14.30
2022-10-30T19:46:33.792Z,14.30
2022-10-30T19:49:13.566Z,14.30
2022-10-30T19:51:42.914Z,14.30
2022-10-30T19:54:10.849Z,14.20
2022-10-30T19:56:38.889Z,14.20
2022-10-30T19:59:10.660Z,14.20
2022-10-30T20:01:38.776Z,14.10
2022-10-30T20:04:06.843Z,14.10
2022-10-30T20:06:34.838Z,14.10
2022-10-30T20:09:05.406Z,14.10
2022-10-30T20:11:33.409Z,14.00
2022-10-30T20:14:01.372Z,14.00
2022-10-30T20:16:29.398Z,14.00
2022-10-30T20:18:57.387Z,13.90
2022-10-30T20:21:28.227Z,13.90
2022-10-30T20:23:56.245Z,13.90
2022-10-30T20:26:30.134Z,13.80
2022-10-30T20:29:00.403Z,13.80
2022-10-30T20:31:28.500Z,13.80
2022-10-30T20:33:56.603Z,13.80
2022-10-30T20:36:24.560Z,13.80
2022-10-30T20:38:52.483Z,13.70
2022-10-30T20:41:24.127Z,13.70
2022-10-30T20:43:53.471Z,13.70
2022-10-30T20:46:22.209Z,13.70
2022-10-30T20:48:50.498Z,13.60
2022-10-30T20:51:18.502Z,13.60
2022-10-30T20:53:46.627Z,13.60
2022-10-30T20:56:14.644Z,13.50
2022-10-30T20:58:43.288Z,13.50
2022-10-30T21:01:13.979Z,13.50
2022-10-30T21:03:42.075Z,13.40
2022-10-30T21:06:10.134Z,13.40
2022-10-30T21:08:38.572Z,13.40
2022-10-30T21:11:08.199Z,13.40
2022-10-30T21:13:37.454Z,13.40
2022-10-30T21:16:09.160Z,13.40
2022-10-30T21:18:38.542Z,13.40
2022-10-30T21:21:11.422Z,13.40
2022-10-30T21:23:39.565Z,13.30
2022-10-30T21:26:10.852Z,13.30
2022-10-30T21:28:39.329Z,13.30
2022-10-30T21:31:11.459Z,13.30
2022-10-30T21:33:41.282Z,13.20
2022-10-30T21:36:14.336Z,13.20
2022-10-30T21:38:44.368Z,13.20
2022-10-30T21:41:14.131Z,13.20
2022-10-30T21:43:42.486Z,13.20
2022-10-30T21:46:13.367Z,13.20
2022-10-30T21:48:42.724Z,13.10
2022-10-30T21:51:13.473Z,13.10
2022-10-30T21:53:42.374Z,13.10
2022-10-30T21:56:13.566Z,13.10
2022-10-30T21:58:42.129Z,13.00
2022-10-30T22:01:16.595Z,13.00
2022-10-30T22:03:46.659Z,13.00
2022-10-30T22:06:17.933Z,13.00
2022-10-30T22:08:47.358Z,12.90
2022-10-30T22:11:16.173Z,12.90
2022-10-30T22:13:44.371Z,12.90
2022-10-30T22:16:15.525Z,12.90
2022-10-30T22:18:44.924Z,12.90
2022-10-30T22:21:14.362Z,12.90
2022-10-30T22:23:43.590Z,12.90
2022-10-30T22:26:15.442Z,12.80
2022-10-30T22:28:44.593Z,12.80
2022-10-30T22:31:15.893Z,12.80
2022-10-30T22:33:45.913Z,12.80
2022-10-30T22:36:17.702Z,12.80
2022-10-30T22:38:46.838Z,12.80
2022-10-30T22:41:18.455Z,12.80
2022-10-30T22:43:49.797Z,12.80
2022-10-30T22:46:19.857Z,12.80
2022-10-30T22:48:49.314Z,12.80
2022-10-30T22:51:20.277Z,12.80
2022-10-30T22:53:57.128Z,12.80
2022-10-30T22:56:27.111Z,12.80
2022-10-30T22:58:56.344Z,12.80
2022-10-30T23:01:26.955Z,12.80
2022-10-30T23:04:00.037Z,12.80
2022-10-30T23:06:30.965Z,12.80
2022-10-30T23:09:01.581Z,12.80
2022-10-30T23:11:30.929Z,12.80
2022-10-30T23:13:59.091Z,12.70
2022-10-30T23:16:28.068Z,12.70
2022-10-30T23:18:59.458Z,12.70
2022-10-30T23:21:30.919Z,12.70
2022-10-30T23:24:00.029Z,12.60
2022-10-30T23:26:31.825Z,12.60
2022-10-30T23:29:01.348Z,12.60
2022-10-30T23:31:33.379Z,12.50
2022-10-30T23:34:07.121Z,12.50
2022-10-30T23:36:35.251Z,12.60
2022-10-30T23:39:06.115Z,12.50
2022-10-30T23:41:34.926Z,12.50
2022-10-30T23:44:06.608Z,12.60
2022-10-30T23:46:36.395Z,12.50
2022-10-30T23:49:06.445Z,12.50
2022-10-30T23:51:34.639Z,12.50
2022-10-30T23:54:02.868Z,12.50
2022-10-30T23:56:31.188Z,12.60
2022-10-30T23:58:59.571Z,12.60
